Terminal Aerodrome Forecast
Issued by NWS Twin Cities, MN

Home | Current Version | Previous Version | Text Only | Print | Product List | Glossary Off
Versions: 1 2 3 4 5 6 7 8 9 10 11 12 13 14 15 16 17 18 19 20 21 22 23 24 25 26

000
FTUS43 KMPX 101100
TAFMSP
TAF
KMSP 101120Z 1012/1118 13004KT P6SM SKC
     FM101500 17008KT P6SM FEW040 SCT120
     FM102000 18010G15KT P6SM SCT045 BKN100
     FM110300 15009KT P6SM VCSH BKN050 OVC080 PROB30 1109/1112 5SM
      TSRA OVC035CB=

USA.gov is the U.S. government's official web portal to all federal, state and local government web resources and services.